PWSweather.com
Personal Weather Stations
Station Observations
EMMBROOK1
Emmbrook, WokinghamGB

EmmbrookWokinghamGB

Lat: 51.42698, Lon: -0.850575

Elevation: 144

Station Type: WH1081

http://www.wokinghamweather.co.uk

Latest ConditionsUpdated 11:00:02 PM GMT Sunday, Dec 9, 2018
Currently Today's Max Today's Min Today's Average
Temperature 43.5°F6.4°C 51.8°F11.0°C 43.2°F6.2°C 48.9°F9.4°C
Dew Point 39.0°F3.9°C 43.7°F6.5°C 37.9°F3.3°C 40.7°F4.8°C
Winds 4.1 mph SW6.6 kmh SW 15.0 mph -24.1 kmh - - 8.9 mph 14.3 kmh
Wind Gusts 7.6 mph12.2 kmh 23.5 mph37.8 kmh - -
Humidity 84% 84% 62% 74%
Pressure 30.18 in1022.0 mb 30.18 in1022.0 mb 29.52 in999.7 mb -
Hour Temp Dew Point Humidity Winds Wind Gusts Pressure Precip Precip Rate Daily Precip Total
11:00 PM 43.5°F6.4°C 39.0°F3.9°C 84% 4.1 mph SW6.6 kmh SW 7.6 mph12.2 kmh 30.18 in1022.0 mb 0.00 in0.0 mm 0.00 in0.0 mm 0.00 in0.0 mm
10:45 PM 43.5°F6.4°C 39.0°F3.9°C 84% 4.8 mph WSW7.7 kmh WSW 6.9 mph11.1 kmh 30.18 in1022.0 mb 0.00 in0.0 mm 0.00 in0.0 mm 0.00 in0.0 mm
10:30 PM 43.2°F6.2°C 38.4°F3.6°C 83% 4.0 mph WSW6.4 kmh WSW 6.0 mph9.7 kmh 30.18 in1022.0 mb 0.00 in0.0 mm 0.00 in0.0 mm 0.00 in0.0 mm
10:15 PM 43.2°F6.2°C 38.0°F3.3°C 82% 2.9 mph WSW4.7 kmh WSW 4.5 mph7.2 kmh 30.18 in1022.0 mb 0.00 in0.0 mm 0.00 in0.0 mm 0.00 in0.0 mm
10:00 PM 43.3°F6.3°C 37.9°F3.3°C 81% 2.3 mph SW3.7 kmh SW 3.1 mph5.0 kmh 30.17 in1021.7 mb 0.00 in0.0 mm 0.00 in0.0 mm 0.00 in0.0 mm
09:45 PM 43.9°F6.6°C 38.1°F3.4°C 80% 2.4 mph SW3.9 kmh SW 3.8 mph6.1 kmh 30.16 in1021.3 mb 0.00 in0.0 mm 0.00 in0.0 mm 0.00 in0.0 mm
09:30 PM 45.0°F7.2°C 38.8°F3.8°C 79% 1.0 mph SSW1.6 kmh SSW 3.1 mph5.0 kmh 30.16 in1021.3 mb 0.00 in0.0 mm 0.00 in0.0 mm 0.00 in0.0 mm
09:15 PM 45.5°F7.5°C 39.4°F4.1°C 79% 3.5 mph WSW5.6 kmh WSW 5.4 mph8.7 kmh 30.16 in1021.3 mb 0.00 in0.0 mm 0.00 in0.0 mm 0.00 in0.0 mm
09:00 PM 45.7°F7.6°C 39.2°F4.0°C 78% 2.8 mph SSW4.5 kmh SSW 4.5 mph7.2 kmh 30.15 in1021.0 mb 0.00 in0.0 mm 0.00 in0.0 mm 0.00 in0.0 mm
08:45 PM 46.0°F7.8°C 39.2°F4.0°C 77% 3.0 mph SW4.8 kmh SW 3.8 mph6.1 kmh 30.15 in1021.0 mb 0.00 in0.0 mm 0.00 in0.0 mm 0.00 in0.0 mm
08:30 PM 46.4°F8.0°C 39.3°F4.1°C 76% 4.7 mph SW7.6 kmh SW 6.0 mph9.7 kmh 30.14 in1020.7 mb 0.00 in0.0 mm 0.00 in0.0 mm 0.00 in0.0 mm
08:15 PM 46.8°F8.2°C 39.3°F4.1°C 75% 6.2 mph WNW10.0 kmh WNW 9.2 mph14.8 kmh 30.13 in1020.3 mb 0.00 in0.0 mm 0.00 in0.0 mm 0.00 in0.0 mm
08:00 PM 46.9°F8.3°C 39.4°F4.1°C 75% 6.3 mph WSW10.1 kmh WSW 9.2 mph14.8 kmh 30.13 in1020.3 mb 0.00 in0.0 mm 0.00 in0.0 mm 0.00 in0.0 mm
07:45 PM 47.1°F8.4°C 39.6°F4.2°C 75% 6.9 mph WSW11.1 kmh WSW 9.8 mph15.8 kmh 30.12 in1020.0 mb 0.00 in0.0 mm 0.00 in0.0 mm 0.00 in0.0 mm
07:30 PM 47.1°F8.4°C 39.3°F4.1°C 74% 6.4 mph WNW10.3 kmh WNW 9.8 mph15.8 kmh 30.11 in1019.6 mb 0.00 in0.0 mm 0.00 in0.0 mm 0.00 in0.0 mm
07:15 PM 46.9°F8.3°C 39.4°F4.1°C 75% 6.3 mph WSW10.1 kmh WSW 10.7 mph17.2 kmh 30.11 in1019.6 mb 0.00 in0.0 mm 0.00 in0.0 mm 0.00 in0.0 mm
07:00 PM 47.1°F8.4°C 39.3°F4.1°C 74% 6.2 mph SW10.0 kmh SW 10.7 mph17.2 kmh 30.10 in1019.3 mb 0.00 in0.0 mm 0.00 in0.0 mm 0.00 in0.0 mm
06:45 PM 47.1°F8.4°C 38.9°F3.8°C 73% 7.3 mph W11.7 kmh W 8.3 mph13.4 kmh 30.09 in1019.0 mb 0.00 in0.0 mm 0.00 in0.0 mm 0.00 in0.0 mm
06:30 PM 47.1°F8.4°C 38.9°F3.8°C 73% 5.4 mph SW8.7 kmh SW 6.0 mph9.7 kmh 30.08 in1018.6 mb 0.00 in0.0 mm 0.00 in0.0 mm 0.00 in0.0 mm
06:15 PM 47.5°F8.6°C 38.9°F3.8°C 72% 4.1 mph WSW6.6 kmh WSW 6.0 mph9.7 kmh 30.07 in1018.3 mb 0.00 in0.0 mm 0.00 in0.0 mm 0.00 in0.0 mm
06:00 PM 47.8°F8.8°C 39.3°F4.1°C 72% 4.8 mph SW7.7 kmh SW 6.9 mph11.1 kmh 30.07 in1018.3 mb 0.00 in0.0 mm 0.00 in0.0 mm 0.00 in0.0 mm
05:45 PM 48.9°F9.4°C 39.9°F4.4°C 71% 4.9 mph ENE7.9 kmh ENE 9.8 mph15.8 kmh 30.06 in1017.9 mb 0.00 in0.0 mm 0.00 in0.0 mm 0.00 in0.0 mm
05:30 PM 48.9°F9.4°C 39.9°F4.4°C 71% 5.8 mph SW9.3 kmh SW 9.2 mph14.8 kmh 30.05 in1017.6 mb 0.00 in0.0 mm 0.00 in0.0 mm 0.00 in0.0 mm
05:15 PM 49.1°F9.5°C 40.1°F4.5°C 71% 5.5 mph WSW8.9 kmh WSW 7.6 mph12.2 kmh 30.04 in1017.3 mb 0.00 in0.0 mm 0.00 in0.0 mm 0.00 in0.0 mm
05:00 PM 49.3°F9.6°C 40.3°F4.6°C 71% 5.2 mph WSW8.4 kmh WSW 9.2 mph14.8 kmh 30.04 in1017.3 mb 0.00 in0.0 mm 0.00 in0.0 mm 0.00 in0.0 mm
04:45 PM 49.3°F9.6°C 40.3°F4.6°C 71% 5.0 mph SW8.0 kmh SW 8.3 mph13.4 kmh 30.02 in1016.6 mb 0.00 in0.0 mm 0.00 in0.0 mm 0.00 in0.0 mm
04:30 PM 49.3°F9.6°C 39.2°F4.0°C 68% 6.0 mph W9.7 kmh W 9.8 mph15.8 kmh 30.02 in1016.6 mb 0.00 in0.0 mm 0.00 in0.0 mm 0.00 in0.0 mm
04:15 PM 50.0°F10.0°C 38.3°F3.5°C 64% 7.1 mph W11.4 kmh W 10.7 mph17.2 kmh 30.01 in1016.3 mb 0.00 in0.0 mm 0.00 in0.0 mm 0.00 in0.0 mm
04:00 PM 50.5°F10.3°C 38.0°F3.3°C 62% 8.3 mph WNW13.4 kmh WNW 13.0 mph20.9 kmh 29.99 in1015.6 mb 0.00 in0.0 mm 0.00 in0.0 mm 0.00 in0.0 mm
03:45 PM 51.3°F10.7°C 38.7°F3.7°C 62% 8.6 mph SW13.8 kmh SW 13.6 mph21.9 kmh 29.98 in1015.2 mb 0.00 in0.0 mm 0.00 in0.0 mm 0.00 in0.0 mm
03:30 PM 51.6°F10.9°C 39.8°F4.3°C 64% 10.4 mph WSW16.7 kmh WSW 13.6 mph21.9 kmh 29.97 in1014.9 mb 0.00 in0.0 mm 0.00 in0.0 mm 0.00 in0.0 mm
03:15 PM 51.6°F10.9°C 40.2°F4.6°C 65% 8.9 mph SW14.3 kmh SW 13.0 mph20.9 kmh 29.96 in1014.6 mb 0.00 in0.0 mm 0.00 in0.0 mm 0.00 in0.0 mm
03:00 PM 51.8°F11.0°C 40.0°F4.4°C 64% 10.1 mph WSW16.3 kmh WSW 15.2 mph24.5 kmh 29.95 in1014.2 mb 0.00 in0.0 mm 0.00 in0.0 mm 0.00 in0.0 mm
02:45 PM 51.1°F10.6°C 40.5°F4.7°C 67% 7.7 mph WSW12.4 kmh WSW 10.7 mph17.2 kmh 29.93 in1013.5 mb 0.00 in0.0 mm 0.00 in0.0 mm 0.00 in0.0 mm
02:30 PM 51.3°F10.7°C 40.3°F4.6°C 66% 9.5 mph WSW15.3 kmh WSW 12.1 mph19.5 kmh 29.93 in1013.5 mb 0.00 in0.0 mm 0.00 in0.0 mm 0.00 in0.0 mm
02:15 PM 51.6°F10.9°C 40.2°F4.6°C 65% 8.1 mph WNW13.0 kmh WNW 12.1 mph19.5 kmh 29.91 in1012.9 mb 0.00 in0.0 mm 0.00 in0.0 mm 0.00 in0.0 mm
02:00 PM 51.6°F10.9°C 40.2°F4.6°C 65% 10.1 mph NW16.3 kmh NW 13.6 mph21.9 kmh 29.90 in1012.5 mb 0.00 in0.0 mm 0.00 in0.0 mm 0.00 in0.0 mm
01:45 PM 51.3°F10.7°C 39.9°F4.4°C 65% 10.4 mph NW16.7 kmh NW 14.5 mph23.3 kmh 29.89 in1012.2 mb 0.00 in0.0 mm 0.00 in0.0 mm 0.00 in0.0 mm
01:30 PM 51.3°F10.7°C 40.3°F4.6°C 66% 9.8 mph SSE15.8 kmh SSE 13.6 mph21.9 kmh 29.88 in1011.9 mb 0.00 in0.0 mm 0.00 in0.0 mm 0.00 in0.0 mm
01:15 PM 51.6°F10.9°C 40.2°F4.6°C 65% 9.2 mph WSW14.8 kmh WSW 13.6 mph21.9 kmh 29.87 in1011.5 mb 0.00 in0.0 mm 0.00 in0.0 mm 0.00 in0.0 mm
01:00 PM 51.6°F10.9°C 41.0°F5.0°C 67% 8.9 mph W14.3 kmh W 13.0 mph20.9 kmh 29.86 in1011.2 mb 0.00 in0.0 mm 0.00 in0.0 mm 0.00 in0.0 mm
12:45 PM 51.3°F10.7°C 41.4°F5.2°C 69% 6.8 mph WNW10.9 kmh WNW 11.4 mph18.3 kmh 29.86 in1011.2 mb 0.00 in0.0 mm 0.00 in0.0 mm 0.00 in0.0 mm
12:30 PM 50.9°F10.5°C 41.1°F5.1°C 69% 8.6 mph SW13.8 kmh SW 13.6 mph21.9 kmh 29.84 in1010.5 mb 0.00 in0.0 mm 0.00 in0.0 mm 0.00 in0.0 mm
12:15 PM 51.1°F10.6°C 40.9°F4.9°C 68% 8.8 mph SSW14.2 kmh SSW 10.7 mph17.2 kmh 29.84 in1010.5 mb 0.00 in0.0 mm 0.00 in0.0 mm 0.00 in0.0 mm
12:00 PM 51.1°F10.6°C 40.9°F4.9°C 68% 8.0 mph E12.9 kmh E 11.4 mph18.3 kmh 29.83 in1010.2 mb 0.00 in0.0 mm 0.00 in0.0 mm 0.00 in0.0 mm
11:45 AM 50.4°F10.2°C 40.6°F4.8°C 69% 7.8 mph W12.6 kmh W 11.4 mph18.3 kmh 29.81 in1009.5 mb 0.00 in0.0 mm 0.00 in0.0 mm 0.00 in0.0 mm
11:30 AM 50.0°F10.0°C 41.3°F5.2°C 72% 7.7 mph SE12.4 kmh SE 12.1 mph19.5 kmh 29.81 in1009.5 mb 0.00 in0.0 mm 0.00 in0.0 mm 0.00 in0.0 mm
11:15 AM 50.4°F10.2°C 42.4°F5.8°C 74% 7.2 mph W11.6 kmh W 10.7 mph17.2 kmh 29.79 in1008.8 mb 0.00 in0.0 mm 0.00 in0.0 mm 0.00 in0.0 mm
11:00 AM 51.1°F10.6°C 42.7°F5.9°C 73% 8.1 mph W13.0 kmh W 13.0 mph20.9 kmh 29.78 in1008.5 mb 0.00 in0.0 mm 0.00 in0.0 mm 0.00 in0.0 mm
10:45 AM 50.9°F10.5°C 42.9°F6.1°C 74% 9.9 mph SSW15.9 kmh SSW 13.6 mph21.9 kmh 29.77 in1008.1 mb 0.00 in0.0 mm 0.00 in0.0 mm 0.00 in0.0 mm
10:30 AM 50.2°F10.1°C 42.9°F6.1°C 76% 10.0 mph WSW16.1 kmh WSW 13.0 mph20.9 kmh 29.75 in1007.5 mb 0.00 in0.0 mm 0.00 in0.0 mm 0.00 in0.0 mm
10:15 AM 50.0°F10.0°C 43.1°F6.2°C 77% 8.7 mph NW14.0 kmh NW 15.2 mph24.5 kmh 29.74 in1007.1 mb 0.00 in0.0 mm 0.00 in0.0 mm 0.00 in0.0 mm
10:00 AM 50.0°F10.0°C 43.4°F6.3°C 78% 8.5 mph SW13.7 kmh SW 15.9 mph25.6 kmh 29.73 in1006.8 mb 0.00 in0.0 mm 0.00 in0.0 mm 0.00 in0.0 mm
09:45 AM 50.0°F10.0°C 43.1°F6.2°C 77% 7.3 mph WSW11.7 kmh WSW 11.4 mph18.3 kmh 29.71 in1006.1 mb 0.00 in0.0 mm 0.00 in0.0 mm 0.00 in0.0 mm
09:30 AM 50.0°F10.0°C 43.1°F6.2°C 77% 11.3 mph WSW18.2 kmh WSW 15.9 mph25.6 kmh 29.70 in1005.8 mb 0.00 in0.0 mm 0.00 in0.0 mm 0.00 in0.0 mm
09:15 AM 49.3°F9.6°C 43.4°F6.3°C 80% 10.3 mph WSW16.6 kmh WSW 14.5 mph23.3 kmh 29.68 in1005.1 mb 0.00 in0.0 mm 0.00 in0.0 mm 0.00 in0.0 mm
09:00 AM 49.3°F9.6°C 43.7°F6.5°C 81% 10.6 mph WSW17.1 kmh WSW 13.6 mph21.9 kmh 29.68 in1005.1 mb 0.00 in0.0 mm 0.00 in0.0 mm 0.00 in0.0 mm
08:45 AM 49.3°F9.6°C 43.7°F6.5°C 81% 9.1 mph W14.6 kmh W 13.0 mph20.9 kmh 29.67 in1004.7 mb 0.00 in0.0 mm 0.00 in0.0 mm 0.00 in0.0 mm
08:30 AM 49.3°F9.6°C 43.1°F6.2°C 79% 9.6 mph W15.4 kmh W 12.1 mph19.5 kmh 29.66 in1004.4 mb 0.00 in0.0 mm 0.00 in0.0 mm 0.00 in0.0 mm
08:15 AM 50.0°F10.0°C 42.4°F5.8°C 75% 11.5 mph W18.5 kmh W 17.4 mph28.0 kmh 29.65 in1004.1 mb 0.00 in0.0 mm 0.00 in0.0 mm 0.00 in0.0 mm
08:00 AM 50.0°F10.0°C 42.0°F5.6°C 74% 9.6 mph WSW15.4 kmh WSW 14.5 mph23.3 kmh 29.64 in1003.7 mb 0.00 in0.0 mm 0.00 in0.0 mm 0.00 in0.0 mm
07:45 AM 50.2°F10.1°C 42.2°F5.7°C 74% 13.5 mph WSW21.7 kmh WSW 18.3 mph29.5 kmh 29.62 in1003.0 mb 0.00 in0.0 mm 0.00 in0.0 mm 0.00 in0.0 mm
07:30 AM 50.4°F10.2°C 42.0°F5.6°C 73% 11.6 mph WSW18.7 kmh WSW 16.8 mph27.0 kmh 29.61 in1002.7 mb 0.00 in0.0 mm 0.00 in0.0 mm 0.00 in0.0 mm
07:15 AM 50.4°F10.2°C 41.7°F5.4°C 72% 13.7 mph WSW22.0 kmh WSW 20.6 mph33.2 kmh 29.59 in1002.0 mb 0.00 in0.0 mm 0.00 in0.0 mm 0.00 in0.0 mm
07:00 AM 50.4°F10.2°C 41.7°F5.4°C 72% 14.5 mph SW23.3 kmh SW 19.0 mph30.6 kmh 29.58 in1001.7 mb 0.00 in0.0 mm 0.00 in0.0 mm 0.00 in0.0 mm
06:45 AM 50.4°F10.2°C 42.0°F5.6°C 73% 12.2 mph WNW19.6 kmh WNW 19.7 mph31.7 kmh 29.57 in1001.4 mb 0.00 in0.0 mm 0.00 in0.0 mm 0.00 in0.0 mm
06:30 AM 50.4°F10.2°C 41.7°F5.4°C 72% 13.7 mph WSW22.0 kmh WSW 19.7 mph31.7 kmh 29.57 in1001.4 mb 0.00 in0.0 mm 0.00 in0.0 mm 0.00 in0.0 mm
06:15 AM 50.4°F10.2°C 41.3°F5.2°C 71% 13.9 mph WSW22.4 kmh WSW 19.7 mph31.7 kmh 29.56 in1001.0 mb 0.00 in0.0 mm 0.00 in0.0 mm 0.00 in0.0 mm
06:00 AM 50.4°F10.2°C 41.3°F5.2°C 71% 14.6 mph WSW23.5 kmh WSW 20.6 mph33.2 kmh 29.55 in1000.7 mb 0.00 in0.0 mm 0.00 in0.0 mm 0.00 in0.0 mm
05:45 AM 50.4°F10.2°C 41.7°F5.4°C 72% 12.3 mph SW19.8 kmh SW 15.9 mph25.6 kmh 29.55 in1000.7 mb 0.00 in0.0 mm 0.00 in0.0 mm 0.00 in0.0 mm
05:30 AM 50.0°F10.0°C 41.3°F5.2°C 72% 12.8 mph SW20.6 kmh SW 16.8 mph27.0 kmh 29.54 in1000.3 mb 0.00 in0.0 mm 0.00 in0.0 mm 0.00 in0.0 mm
05:15 AM 49.3°F9.6°C 41.4°F5.2°C 74% 11.2 mph SW18.0 kmh SW 14.5 mph23.3 kmh 29.54 in1000.3 mb 0.00 in0.0 mm 0.00 in0.0 mm 0.00 in0.0 mm
05:00 AM 49.3°F9.6°C 41.4°F5.2°C 74% 13.2 mph SW21.2 kmh SW 19.0 mph30.6 kmh 29.53 in1000.0 mb 0.00 in0.0 mm 0.00 in0.0 mm 0.00 in0.0 mm
04:45 AM 49.3°F9.6°C 41.4°F5.2°C 74% 14.3 mph SW23.0 kmh SW 18.3 mph29.5 kmh 29.53 in1000.0 mb 0.00 in0.0 mm 0.00 in0.0 mm 0.00 in0.0 mm
04:30 AM 49.3°F9.6°C 41.7°F5.4°C 75% 15.0 mph W24.1 kmh W 22.8 mph36.7 kmh 29.53 in1000.0 mb 0.00 in0.0 mm 0.00 in0.0 mm 0.00 in0.0 mm
04:15 AM 48.9°F9.4°C 41.7°F5.4°C 76% 12.5 mph SW20.1 kmh SW 19.7 mph31.7 kmh 29.53 in1000.0 mb 0.00 in0.0 mm 0.00 in0.0 mm 0.00 in0.0 mm
04:00 AM 48.6°F9.2°C 41.7°F5.4°C 77% 14.1 mph SW22.7 kmh SW 18.3 mph29.5 kmh 29.52 in999.7 mb 0.00 in0.0 mm 0.00 in0.0 mm 0.00 in0.0 mm
03:45 AM 48.2°F9.0°C 41.0°F5.0°C 76% 12.1 mph SW19.5 kmh SW 16.8 mph27.0 kmh 29.52 in999.7 mb 0.00 in0.0 mm 0.00 in0.0 mm 0.00 in0.0 mm
03:30 AM 48.0°F8.9°C 41.2°F5.1°C 77% 13.2 mph WSW21.2 kmh WSW 17.4 mph28.0 kmh 29.52 in999.7 mb 0.00 in0.0 mm 0.00 in0.0 mm 0.00 in0.0 mm
03:15 AM 48.2°F9.0°C 41.0°F5.0°C 76% 14.2 mph WSW22.9 kmh WSW 23.5 mph37.8 kmh 29.52 in999.7 mb 0.00 in0.0 mm 0.00 in0.0 mm 0.00 in0.0 mm
03:00 AM 48.2°F9.0°C 41.0°F5.0°C 76% 12.5 mph WSW20.1 kmh WSW 19.7 mph31.7 kmh 29.52 in999.7 mb 0.00 in0.0 mm 0.00 in0.0 mm 0.00 in0.0 mm
02:45 AM 48.4°F9.1°C 41.2°F5.1°C 76% 11.5 mph SW18.5 kmh SW 19.0 mph30.6 kmh 29.54 in1000.3 mb 0.00 in0.0 mm 0.00 in0.0 mm 0.00 in0.0 mm
02:30 AM 47.8°F8.8°C 41.3°F5.2°C 78% 9.6 mph SW15.4 kmh SW 15.2 mph24.5 kmh 29.54 in1000.3 mb 0.00 in0.0 mm 0.00 in0.0 mm 0.00 in0.0 mm
02:15 AM 47.7°F8.7°C 41.1°F5.1°C 78% 9.9 mph SW15.9 kmh SW 13.0 mph20.9 kmh 29.54 in1000.3 mb 0.00 in0.0 mm 0.00 in0.0 mm 0.00 in0.0 mm
02:00 AM 48.0°F8.9°C 41.2°F5.1°C 77% 10.5 mph SW16.9 kmh SW 16.8 mph27.0 kmh 29.53 in1000.0 mb 0.00 in0.0 mm 0.00 in0.0 mm 0.00 in0.0 mm
01:45 AM 48.2°F9.0°C 40.7°F4.8°C 75% 11.5 mph SW18.5 kmh SW 14.5 mph23.3 kmh 29.53 in1000.0 mb 0.00 in0.0 mm 0.00 in0.0 mm 0.00 in0.0 mm
01:30 AM 48.0°F8.9°C 40.8°F4.9°C 76% 11.2 mph SW18.0 kmh SW 15.9 mph25.6 kmh 29.53 in1000.0 mb 0.00 in0.0 mm 0.00 in0.0 mm 0.00 in0.0 mm
01:15 AM 48.0°F8.9°C 41.2°F5.1°C 77% 10.7 mph SW17.2 kmh SW 18.3 mph29.5 kmh 29.53 in1000.0 mb 0.00 in0.0 mm 0.00 in0.0 mm 0.00 in0.0 mm
01:00 AM 48.4°F9.1°C 40.8°F4.9°C 75% 11.6 mph SW18.7 kmh SW 15.9 mph25.6 kmh 29.53 in1000.0 mb 0.00 in0.0 mm 0.00 in0.0 mm 0.00 in0.0 mm
12:45 AM 48.4°F9.1°C 41.2°F5.1°C 76% 12.8 mph S20.6 kmh S 18.3 mph29.5 kmh 29.53 in1000.0 mb 0.00 in0.0 mm 0.00 in0.0 mm 0.00 in0.0 mm
12:30 AM 48.2°F9.0°C 41.0°F5.0°C 76% 10.7 mph WSW17.2 kmh WSW 22.8 mph36.7 kmh 29.53 in1000.0 mb 0.00 in0.0 mm 0.00 in0.0 mm 0.00 in0.0 mm
12:15 AM 48.0°F8.9°C 41.8°F5.4°C 79% 9.5 mph WSW15.3 kmh WSW 15.2 mph24.5 kmh 29.53 in1000.0 mb 0.00 in0.0 mm 0.00 in0.0 mm 0.00 in0.0 mm
12:00 AM 47.8°F8.8°C 41.6°F5.3°C 79% 8.1 mph WSW13.0 kmh WSW 11.4 mph18.3 kmh 29.52 in999.7 mb 0.00 in0.0 mm 0.00 in0.0 mm 0.00 in0.0 mm